createdAt,value
2019-01-31T00:00:02.370Z,12.83
2019-01-31T00:02:56.738Z,14.07
2019-01-31T00:05:47.873Z,14.33
2019-01-31T00:09:23.029Z,15.70
2019-01-31T00:12:22.944Z,14.40
2019-01-31T00:15:16.204Z,14.67
2019-01-31T00:18:12.480Z,15.03
2019-01-31T00:20:51.601Z,14.87
2019-01-31T00:24:03.202Z,14.30
2019-01-31T00:27:43.967Z,14.27
2019-01-31T00:30:44.160Z,14.53
2019-01-31T00:33:30.195Z,13.10
2019-01-31T00:36:40.623Z,13.83
2019-01-31T00:39:33.758Z,14.70
2019-01-31T00:42:33.542Z,13.00
2019-01-31T00:45:42.161Z,13.73
2019-01-31T00:48:40.011Z,12.37
2019-01-31T00:51:58.917Z,12.20
2019-01-31T00:54:39.505Z,16.20
2019-01-31T00:57:17.975Z,13.97
2019-01-31T01:00:15.722Z,12.53
2019-01-31T01:03:02.463Z,13.13
2019-01-31T01:06:19.616Z,13.37
2019-01-31T01:09:23.097Z,13.57
2019-01-31T01:12:25.934Z,13.60
2019-01-31T01:15:32.466Z,13.73
2019-01-31T01:18:29.998Z,13.27
2019-01-31T01:21:55.473Z,12.07
2019-01-31T01:25:16.950Z,13.50
2019-01-31T01:28:10.304Z,12.97
2019-01-31T01:31:15.501Z,15.17
2019-01-31T01:34:07.579Z,13.50
2019-01-31T01:37:03.223Z,12.87
2019-01-31T01:40:03.935Z,13.73
2019-01-31T01:42:48.471Z,12.30
2019-01-31T01:45:56.293Z,14.57
2019-01-31T01:48:46.174Z,13.00
2019-01-31T01:51:44.503Z,13.00
2019-01-31T01:55:02.070Z,14.60
2019-01-31T01:58:30.689Z,12.43
2019-01-31T10:27:11.553Z,3.58
2019-01-31T10:30:05.656Z,3.42
2019-01-31T10:32:53.715Z,4.00
2019-01-31T10:36:15.947Z,3.50
2019-01-31T10:39:00.469Z,3.17
2019-01-31T10:41:54.388Z,2.92
2019-01-31T10:44:49.438Z,3.22
2019-01-31T10:47:40.851Z,2.92
2019-01-31T10:50:40.315Z,3.02
2019-01-31T10:53:54.419Z,2.45
2019-01-31T10:57:01.155Z,2.92
2019-01-31T11:00:27.581Z,2.50
2019-01-31T11:03:29.207Z,2.80
2019-01-31T11:06:38.092Z,2.35
2019-01-31T11:09:23.327Z,3.25
2019-01-31T11:12:30.354Z,3.98
2019-01-31T11:15:26.369Z,3.27
2019-01-31T11:18:48.864Z,4.58
2019-01-31T11:21:57.583Z,3.05
2019-01-31T11:25:05.655Z,3.12
2019-01-31T11:28:49.051Z,2.87
2019-01-31T11:31:57.600Z,3.00
2019-01-31T11:35:06.251Z,2.02
2019-01-31T11:38:09.515Z,2.27
2019-01-31T11:41:25.936Z,2.83
2019-01-31T11:44:51.045Z,1.95
2019-01-31T11:48:02.706Z,2.30
2019-01-31T11:51:08.442Z,2.98
2019-01-31T11:53:52.436Z,2.20
2019-01-31T11:57:05.357Z,2.87
2019-01-31T11:59:26.482Z,3.92
2019-01-31T12:01:55.980Z,2.10
2019-01-31T12:04:25.419Z,2.25
2019-01-31T12:06:54.731Z,1.77
2019-01-31T12:09:26.485Z,1.65
2019-01-31T12:11:59.123Z,2.20
2019-01-31T12:14:28.427Z,2.10
2019-01-31T12:16:57.752Z,2.00
2019-01-31T12:19:28.302Z,1.92
2019-01-31T12:21:57.596Z,2.05
2019-01-31T12:24:26.803Z,2.47
2019-01-31T12:26:57.913Z,3.80
2019-01-31T12:29:48.125Z,2.25
2019-01-31T12:32:17.462Z,1.75
2019-01-31T12:34:46.713Z,2.62
2019-01-31T12:37:16.031Z,1.85
2019-01-31T12:39:45.294Z,2.42
2019-01-31T12:42:14.557Z,2.60
2019-01-31T12:44:44.216Z,2.33
2019-01-31T12:47:13.642Z,1.98
2019-01-31T12:49:42.965Z,2.72
2019-01-31T12:52:15.713Z,3.58
2019-01-31T12:54:45.030Z,3.83
2019-01-31T12:57:15.042Z,2.77
2019-01-31T12:59:44.319Z,2.83
2019-01-31T13:02:14.216Z,2.08
2019-01-31T13:04:43.453Z,2.98
2019-01-31T13:07:13.425Z,2.60
2019-01-31T13:09:42.609Z,1.87
2019-01-31T13:12:11.849Z,2.80
2019-01-31T13:14:41.308Z,2.23
2019-01-31T13:17:10.557Z,2.67
2019-01-31T13:19:39.864Z,3.27
2019-01-31T13:22:09.423Z,2.77
2019-01-31T13:24:38.631Z,3.27
2019-01-31T13:27:08.202Z,2.70
2019-01-31T13:29:37.422Z,2.17
2019-01-31T13:32:06.889Z,2.47
2019-01-31T13:34:36.217Z,2.70
2019-01-31T13:37:05.939Z,3.17
2019-01-31T13:39:35.297Z,2.80
2019-01-31T13:42:04.776Z,2.60
2019-01-31T13:44:34.150Z,2.87
2019-01-31T13:47:03.552Z,2.33
2019-01-31T13:49:32.723Z,2.40
2019-01-31T13:52:02.257Z,3.60
2019-01-31T13:54:31.469Z,2.40
2019-01-31T13:57:00.699Z,2.83
2019-01-31T13:59:29.837Z,2.70
2019-01-31T14:01:59.142Z,2.50
2019-01-31T14:04:28.438Z,3.00
2019-01-31T14:06:57.609Z,3.03
2019-01-31T14:09:29.908Z,2.70
2019-01-31T14:12:01.319Z,2.80
2019-01-31T14:14:30.533Z,3.03
2019-01-31T14:16:59.828Z,2.70
2019-01-31T14:19:29.039Z,3.07
2019-01-31T14:21:58.433Z,2.70
2019-01-31T14:24:27.738Z,2.90
2019-01-31T14:26:56.961Z,3.43
2019-01-31T14:29:26.209Z,3.07
2019-01-31T14:31:55.439Z,3.37
2019-01-31T14:34:24.771Z,2.53
2019-01-31T14:36:54.078Z,2.40
2019-01-31T14:39:23.410Z,2.47
2019-01-31T14:41:52.677Z,2.70
2019-01-31T14:44:21.887Z,2.40
2019-01-31T14:46:53.482Z,2.73
2019-01-31T14:49:26.823Z,2.90
2019-01-31T14:51:56.112Z,2.67
2019-01-31T14:54:25.351Z,2.53
2019-01-31T14:56:54.563Z,4.47
2019-01-31T14:59:26.898Z,2.60
2019-01-31T15:01:56.511Z,2.30
2019-01-31T15:04:28.412Z,2.40
2019-01-31T15:06:57.668Z,2.50
2019-01-31T15:09:26.981Z,2.73
2019-01-31T15:11:56.246Z,2.50
2019-01-31T15:14:31.845Z,2.80
2019-01-31T15:16:56.800Z,3.10
2019-01-31T15:19:28.474Z,2.50
2019-01-31T15:21:59.148Z,2.60
2019-01-31T15:24:29.029Z,3.47
2019-01-31T15:26:58.198Z,3.00
2019-01-31T15:29:30.324Z,3.07
2019-01-31T15:32:01.165Z,2.83
2019-01-31T15:34:30.516Z,2.83
2019-01-31T15:37:05.612Z,3.23
2019-01-31T15:39:34.978Z,2.77
2019-01-31T15:42:07.317Z,2.67
2019-01-31T15:44:43.504Z,2.50
2019-01-31T15:47:09.249Z,3.53
2019-01-31T15:49:38.551Z,2.73
2019-01-31T15:52:08.053Z,2.77
2019-01-31T15:54:37.663Z,3.03
2019-01-31T15:57:16.436Z,3.90
2019-01-31T15:59:37.988Z,2.83
2019-01-31T16:02:08.305Z,2.63
2019-01-31T16:04:37.514Z,3.10
2019-01-31T16:07:06.685Z,2.80
2019-01-31T16:09:35.896Z,4.07
2019-01-31T16:12:05.645Z,2.90
2019-01-31T16:14:35.043Z,3.03
2019-01-31T16:17:04.569Z,3.10
2019-01-31T16:19:33.842Z,2.80
2019-01-31T16:22:05.581Z,2.80
2019-01-31T16:24:34.896Z,3.17
2019-01-31T16:27:04.188Z,3.40
2019-01-31T16:29:36.294Z,3.07
2019-01-31T16:32:05.919Z,4.43
2019-01-31T16:34:35.139Z,4.00
2019-01-31T16:37:04.721Z,3.60
2019-01-31T16:39:34.026Z,3.57
2019-01-31T16:42:04.973Z,4.13
2019-01-31T16:44:34.296Z,4.17
2019-01-31T16:47:04.370Z,3.83
2019-01-31T16:49:33.655Z,4.50
2019-01-31T16:52:04.817Z,3.93
2019-01-31T16:54:37.021Z,4.67
2019-01-31T16:57:06.316Z,3.73
2019-01-31T16:59:35.596Z,3.50
2019-01-31T17:02:05.453Z,3.90
2019-01-31T17:04:34.719Z,7.63
2019-01-31T17:07:07.007Z,5.97
2019-01-31T17:09:39.510Z,7.97
2019-01-31T17:12:08.825Z,5.90
2019-01-31T17:14:43.791Z,5.10
2019-01-31T17:17:18.698Z,4.97
2019-01-31T17:19:51.033Z,4.60
2019-01-31T17:22:20.460Z,5.67
2019-01-31T17:24:54.607Z,4.90
2019-01-31T17:27:25.261Z,4.53
2019-01-31T17:29:56.628Z,5.23
2019-01-31T17:32:26.061Z,5.97
2019-01-31T17:35:13.155Z,5.20
2019-01-31T17:37:46.371Z,4.70
2019-01-31T17:40:18.574Z,5.03
2019-01-31T17:42:50.684Z,6.47
2019-01-31T17:45:30.066Z,5.03
2019-01-31T17:47:51.405Z,5.23
2019-01-31T17:50:20.713Z,6.10
2019-01-31T17:52:50.024Z,6.00
2019-01-31T17:55:20.286Z,5.67
2019-01-31T17:57:49.580Z,6.03
2019-01-31T18:00:35.436Z,5.53
2019-01-31T18:03:04.811Z,7.33
2019-01-31T18:05:34.121Z,6.30
2019-01-31T18:08:03.433Z,6.40
2019-01-31T18:10:32.725Z,6.33
2019-01-31T18:13:02.131Z,6.07
2019-01-31T18:15:41.798Z,6.37
2019-01-31T18:18:02.294Z,5.13
2019-01-31T18:20:31.489Z,5.50
2019-01-31T18:23:01.094Z,9.53
2019-01-31T18:25:30.499Z,13.87
2019-01-31T18:27:59.914Z,6.10
2019-01-31T18:30:29.807Z,5.33
2019-01-31T18:32:59.123Z,5.53
2019-01-31T18:35:28.386Z,6.73
2019-01-31T18:37:57.719Z,4.83
2019-01-31T18:40:29.119Z,5.40
2019-01-31T18:42:58.572Z,5.93
2019-01-31T18:45:29.357Z,5.97
2019-01-31T18:47:58.936Z,6.03
2019-01-31T18:50:33.892Z,5.57
2019-01-31T18:53:03.794Z,5.83
2019-01-31T18:55:33.142Z,5.83
2019-01-31T18:58:02.448Z,6.20
2019-01-31T19:00:34.362Z,5.33
2019-01-31T19:03:03.698Z,5.90
2019-01-31T19:05:33.044Z,6.10
2019-01-31T19:08:02.279Z,6.30
2019-01-31T19:10:42.301Z,6.00
2019-01-31T19:13:02.655Z,6.23
2019-01-31T19:15:31.913Z,7.53
2019-01-31T19:18:06.152Z,5.67
2019-01-31T19:20:32.547Z,6.70
2019-01-31T19:23:02.626Z,7.13
2019-01-31T19:25:32.477Z,7.23
2019-01-31T19:28:01.907Z,6.50
2019-01-31T19:30:35.618Z,6.67
2019-01-31T19:33:05.662Z,7.03
2019-01-31T19:35:35.027Z,6.60
2019-01-31T19:38:05.174Z,8.33
2019-01-31T19:40:35.519Z,9.57
2019-01-31T19:43:05.228Z,9.53
2019-01-31T19:45:42.540Z,8.67
2019-01-31T19:48:12.341Z,9.73
2019-01-31T19:50:43.575Z,8.73
2019-01-31T19:53:12.717Z,8.20
2019-01-31T19:55:42.170Z,8.03
2019-01-31T19:58:11.550Z,8.30
2019-01-31T20:00:40.759Z,9.23
2019-01-31T20:03:10.514Z,8.10
2019-01-31T20:05:39.781Z,9.13
2019-01-31T20:08:10.848Z,9.10
2019-01-31T20:10:40.100Z,8.10
2019-01-31T20:13:09.339Z,8.50
2019-01-31T20:15:38.667Z,8.23
2019-01-31T20:18:08.067Z,8.07
2019-01-31T20:20:37.253Z,8.87
2019-01-31T20:23:07.449Z,7.77
2019-01-31T20:25:36.679Z,8.10
2019-01-31T20:28:06.148Z,7.63
2019-01-31T20:30:35.780Z,7.40
2019-01-31T20:33:06.570Z,6.83
2019-01-31T20:35:35.976Z,7.83
2019-01-31T20:38:07.871Z,7.13
2019-01-31T20:40:39.137Z,6.87
2019-01-31T20:43:08.669Z,6.43
2019-01-31T20:45:37.991Z,6.73
2019-01-31T20:48:08.258Z,6.67
2019-01-31T20:50:38.864Z,7.63
2019-01-31T20:53:08.374Z,7.10
2019-01-31T20:55:37.684Z,6.90
2019-01-31T20:58:07.254Z,39.53
2019-01-31T21:00:47.380Z,11.93
2019-01-31T21:03:17.052Z,7.67
2019-01-31T21:05:46.410Z,6.77
2019-01-31T21:08:16.079Z,7.10
2019-01-31T21:10:45.779Z,7.50
2019-01-31T21:13:15.118Z,6.07
2019-01-31T21:15:44.562Z,5.20
2019-01-31T21:18:14.089Z,5.73
2019-01-31T21:20:43.404Z,6.40
2019-01-31T21:23:12.759Z,6.10
2019-01-31T21:25:42.086Z,6.30
2019-01-31T21:28:11.392Z,5.47
2019-01-31T21:30:42.325Z,6.53
2019-01-31T21:33:11.580Z,5.67
2019-01-31T21:35:40.880Z,6.23
2019-01-31T21:38:10.238Z,5.87
2019-01-31T21:40:40.093Z,5.87
2019-01-31T21:43:09.552Z,5.60
2019-01-31T21:45:39.102Z,6.03
2019-01-31T21:48:09.721Z,6.60
2019-01-31T21:50:39.046Z,6.77
2019-01-31T21:53:08.467Z,5.50
2019-01-31T21:55:37.875Z,5.20
2019-01-31T21:58:07.385Z,5.60
2019-01-31T22:00:37.057Z,4.87
2019-01-31T22:03:08.083Z,5.13
2019-01-31T22:05:37.465Z,5.17
2019-01-31T22:08:07.009Z,5.57
2019-01-31T22:10:36.209Z,7.53
2019-01-31T22:13:05.741Z,6.80
2019-01-31T22:15:35.681Z,5.37
2019-01-31T22:18:06.975Z,5.73
2019-01-31T22:20:38.336Z,4.27
2019-01-31T22:23:07.445Z,4.57
2019-01-31T22:25:36.577Z,5.43
2019-01-31T22:28:06.402Z,5.20
2019-01-31T22:30:37.420Z,5.03
2019-01-31T22:33:08.304Z,5.40
2019-01-31T22:35:37.562Z,4.87
2019-01-31T22:38:07.101Z,5.17
2019-01-31T22:40:36.229Z,5.03
2019-01-31T22:43:05.909Z,5.33
2019-01-31T22:45:35.106Z,5.20
2019-01-31T22:48:05.553Z,4.80
2019-01-31T22:50:34.835Z,4.77
2019-01-31T22:53:04.238Z,4.57
2019-01-31T22:55:33.442Z,5.27
2019-01-31T22:58:02.705Z,4.40
2019-01-31T23:01:06.816Z,6.17
2019-01-31T23:03:36.427Z,4.23
2019-01-31T23:06:07.911Z,4.70
2019-01-31T23:08:37.164Z,4.33
2019-01-31T23:11:06.860Z,6.60
2019-01-31T23:13:39.051Z,4.50
2019-01-31T23:16:08.365Z,5.37
2019-01-31T23:18:37.757Z,4.57
2019-01-31T23:21:07.032Z,4.37
2019-01-31T23:23:36.171Z,4.60
2019-01-31T23:26:05.686Z,4.90
2019-01-31T23:28:34.968Z,5.23
2019-01-31T23:31:04.789Z,5.07
2019-01-31T23:33:34.066Z,4.93
2019-01-31T23:36:03.317Z,4.60
2019-01-31T23:38:32.515Z,4.83
2019-01-31T23:41:01.865Z,4.83
2019-01-31T23:43:31.171Z,5.20
2019-01-31T23:46:04.637Z,5.00
2019-01-31T23:48:33.998Z,5.20
2019-01-31T23:51:03.389Z,6.07
2019-01-31T23:53:32.800Z,5.27
2019-01-31T23:56:03.470Z,5.70
2019-01-31T23:58:36.205Z,5.93
